sensor_id;sensor_type;location;lat;lon;timestamp;P1;durP1;ratioP1;P2;durP2;ratioP2
21593;SDS011;10959;51.328;7.322;2023-02-15T00:00:25;18.90;;;15.03;;
21593;SDS011;10959;51.328;7.322;2023-02-15T00:02:54;18.57;;;14.67;;
21593;SDS011;10959;51.328;7.322;2023-02-15T00:05:20;21.10;;;15.43;;
21593;SDS011;10959;51.328;7.322;2023-02-15T00:07:46;20.40;;;15.57;;
21593;SDS011;10959;51.328;7.322;2023-02-15T00:10:13;19.07;;;14.97;;
21593;SDS011;10959;51.328;7.322;2023-02-15T00:12:40;21.30;;;15.73;;
21593;SDS011;10959;51.328;7.322;2023-02-15T00:15:08;20.50;;;16.67;;
21593;SDS011;10959;51.328;7.322;2023-02-15T00:17:34;21.40;;;15.80;;
21593;SDS011;10959;51.328;7.322;2023-02-15T00:20:01;19.10;;;15.23;;
21593;SDS011;10959;51.328;7.322;2023-02-15T00:22:27;21.67;;;17.30;;
21593;SDS011;10959;51.328;7.322;2023-02-15T00:24:53;22.13;;;17.27;;
21593;SDS011;10959;51.328;7.322;2023-02-15T00:27:20;21.27;;;16.03;;
21593;SDS011;10959;51.328;7.322;2023-02-15T00:29:47;23.37;;;16.53;;
21593;SDS011;10959;51.328;7.322;2023-02-15T00:32:14;19.73;;;16.00;;
21593;SDS011;10959;51.328;7.322;2023-02-15T00:34:40;23.20;;;17.10;;
21593;SDS011;10959;51.328;7.322;2023-02-15T00:37:08;22.03;;;17.10;;
21593;SDS011;10959;51.328;7.322;2023-02-15T00:39:34;19.43;;;15.70;;
21593;SDS011;10959;51.328;7.322;2023-02-15T00:42:01;21.57;;;16.87;;
21593;SDS011;10959;51.328;7.322;2023-02-15T00:44:27;21.83;;;16.53;;
21593;SDS011;10959;51.328;7.322;2023-02-15T00:46:55;23.07;;;17.23;;
21593;SDS011;10959;51.328;7.322;2023-02-15T00:49:21;22.40;;;17.80;;
21593;SDS011;10959;51.328;7.322;2023-02-15T00:51:47;22.33;;;17.33;;
21593;SDS011;10959;51.328;7.322;2023-02-15T00:54:14;21.33;;;16.30;;
21593;SDS011;10959;51.328;7.322;2023-02-15T00:56:40;22.33;;;17.40;;
21593;SDS011;10959;51.328;7.322;2023-02-15T00:59:07;22.23;;;17.47;;
21593;SDS011;10959;51.328;7.322;2023-02-15T01:01:34;20.43;;;16.63;;
21593;SDS011;10959;51.328;7.322;2023-02-15T01:04:02;20.90;;;16.83;;
21593;SDS011;10959;51.328;7.322;2023-02-15T01:06:28;18.63;;;15.43;;
21593;SDS011;10959;51.328;7.322;2023-02-15T01:08:55;22.10;;;16.47;;
21593;SDS011;10959;51.328;7.322;2023-02-15T01:11:22;20.37;;;15.77;;
21593;SDS011;10959;51.328;7.322;2023-02-15T01:13:48;21.73;;;15.30;;
21593;SDS011;10959;51.328;7.322;2023-02-15T01:16:15;20.60;;;16.50;;
21593;SDS011;10959;51.328;7.322;2023-02-15T01:18:42;24.27;;;16.70;;
21593;SDS011;10959;51.328;7.322;2023-02-15T01:21:11;20.90;;;15.60;;
21593;SDS011;10959;51.328;7.322;2023-02-15T01:23:39;24.70;;;17.10;;
21593;SDS011;10959;51.328;7.322;2023-02-15T01:26:06;21.73;;;16.37;;
21593;SDS011;10959;51.328;7.322;2023-02-15T01:28:33;21.50;;;16.83;;
21593;SDS011;10959;51.328;7.322;2023-02-15T01:31:04;23.17;;;17.27;;
21593;SDS011;10959;51.328;7.322;2023-02-15T01:33:31;22.87;;;18.37;;
21593;SDS011;10959;51.328;7.322;2023-02-15T01:35:57;24.17;;;18.17;;
21593;SDS011;10959;51.328;7.322;2023-02-15T01:38:25;20.17;;;16.00;;
21593;SDS011;10959;51.328;7.322;2023-02-15T01:40:52;22.30;;;16.83;;
21593;SDS011;10959;51.328;7.322;2023-02-15T01:43:39;22.53;;;16.97;;
21593;SDS011;10959;51.328;7.322;2023-02-15T01:46:06;22.87;;;17.27;;
21593;SDS011;10959;51.328;7.322;2023-02-15T01:48:35;25.60;;;19.30;;
21593;SDS011;10959;51.328;7.322;2023-02-15T01:51:09;22.13;;;17.10;;
21593;SDS011;10959;51.328;7.322;2023-02-15T01:53:39;22.47;;;18.27;;
21593;SDS011;10959;51.328;7.322;2023-02-15T01:56:12;22.23;;;16.77;;
21593;SDS011;10959;51.328;7.322;2023-02-15T01:58:43;23.43;;;17.50;;
21593;SDS011;10959;51.328;7.322;2023-02-15T02:01:10;21.33;;;17.53;;
21593;SDS011;10959;51.328;7.322;2023-02-15T02:03:38;22.03;;;17.00;;
21593;SDS011;10959;51.328;7.322;2023-02-15T02:06:10;21.33;;;16.60;;
21593;SDS011;10959;51.328;7.322;2023-02-15T02:08:38;23.03;;;18.07;;
21593;SDS011;10959;51.328;7.322;2023-02-15T02:11:09;24.00;;;17.73;;
21593;SDS011;10959;51.328;7.322;2023-02-15T02:13:36;22.53;;;17.13;;
21593;SDS011;10959;51.328;7.322;2023-02-15T02:16:03;23.00;;;17.57;;
21593;SDS011;10959;51.328;7.322;2023-02-15T02:18:41;21.67;;;16.90;;
21593;SDS011;10959;51.328;7.322;2023-02-15T02:21:30;22.20;;;16.57;;
21593;SDS011;10959;51.328;7.322;2023-02-15T02:27:15;25.10;;;18.67;;
21593;SDS011;10959;51.328;7.322;2023-02-15T02:29:53;23.83;;;18.87;;
21593;SDS011;10959;51.328;7.322;2023-02-15T02:35:35;23.13;;;17.23;;
21593;SDS011;10959;51.328;7.322;2023-02-15T02:38:10;23.73;;;17.93;;
21593;SDS011;10959;51.328;7.322;2023-02-15T02:40:44;24.13;;;17.90;;
21593;SDS011;10959;51.328;7.322;2023-02-15T02:43:20;21.93;;;18.37;;
21593;SDS011;10959;51.328;7.322;2023-02-15T02:45:54;23.43;;;18.17;;
21593;SDS011;10959;51.328;7.322;2023-02-15T02:48:26;20.47;;;17.10;;
21593;SDS011;10959;51.328;7.322;2023-02-15T02:50:56;22.80;;;17.70;;
21593;SDS011;10959;51.328;7.322;2023-02-15T02:53:23;23.17;;;17.57;;
21593;SDS011;10959;51.328;7.322;2023-02-15T02:55:50;23.83;;;16.27;;
21593;SDS011;10959;51.328;7.322;2023-02-15T02:58:20;26.17;;;19.53;;
21593;SDS011;10959;51.328;7.322;2023-02-15T03:00:50;24.17;;;19.20;;
21593;SDS011;10959;51.328;7.322;2023-02-15T03:03:22;24.67;;;18.67;;
21593;SDS011;10959;51.328;7.322;2023-02-15T03:05:54;25.53;;;19.23;;
21593;SDS011;10959;51.328;7.322;2023-02-15T03:08:25;24.03;;;17.70;;
21593;SDS011;10959;51.328;7.322;2023-02-15T03:10:58;25.30;;;19.10;;
21593;SDS011;10959;51.328;7.322;2023-02-15T03:13:27;26.90;;;19.37;;
21593;SDS011;10959;51.328;7.322;2023-02-15T03:15:54;22.97;;;17.70;;
21593;SDS011;10959;51.328;7.322;2023-02-15T03:18:41;24.77;;;19.50;;
21593;SDS011;10959;51.328;7.322;2023-02-15T03:21:18;22.53;;;17.03;;
21593;SDS011;10959;51.328;7.322;2023-02-15T03:23:48;22.83;;;17.43;;
21593;SDS011;10959;51.328;7.322;2023-02-15T03:26:18;25.73;;;19.73;;
21593;SDS011;10959;51.328;7.322;2023-02-15T03:28:47;23.67;;;18.53;;
21593;SDS011;10959;51.328;7.322;2023-02-15T03:31:16;25.97;;;19.27;;
21593;SDS011;10959;51.328;7.322;2023-02-15T03:33:47;25.73;;;17.73;;
21593;SDS011;10959;51.328;7.322;2023-02-15T03:36:20;26.93;;;19.17;;
21593;SDS011;10959;51.328;7.322;2023-02-15T03:38:49;25.53;;;19.57;;
21593;SDS011;10959;51.328;7.322;2023-02-15T03:41:24;24.37;;;17.63;;
21593;SDS011;10959;51.328;7.322;2023-02-15T03:43:56;25.63;;;18.33;;
21593;SDS011;10959;51.328;7.322;2023-02-15T03:46:27;25.20;;;19.70;;
21593;SDS011;10959;51.328;7.322;2023-02-15T03:48:58;22.50;;;18.30;;
21593;SDS011;10959;51.328;7.322;2023-02-15T03:51:31;22.60;;;17.77;;
21593;SDS011;10959;51.328;7.322;2023-02-15T03:54:01;24.53;;;19.13;;
21593;SDS011;10959;51.328;7.322;2023-02-15T03:56:29;25.40;;;19.27;;
21593;SDS011;10959;51.328;7.322;2023-02-15T03:58:56;26.60;;;20.33;;
21593;SDS011;10959;51.328;7.322;2023-02-15T04:01:40;25.23;;;19.40;;
21593;SDS011;10959;51.328;7.322;2023-02-15T04:04:30;24.70;;;18.73;;
21593;SDS011;10959;51.328;7.322;2023-02-15T04:07:00;25.63;;;18.70;;
21593;SDS011;10959;51.328;7.322;2023-02-15T04:09:28;22.60;;;17.90;;
21593;SDS011;10959;51.328;7.322;2023-02-15T04:12:12;24.03;;;17.93;;
21593;SDS011;10959;51.328;7.322;2023-02-15T04:14:38;25.40;;;18.90;;
21593;SDS011;10959;51.328;7.322;2023-02-15T04:17:23;24.87;;;19.50;;
21593;SDS011;10959;51.328;7.322;2023-02-15T04:19:49;23.27;;;17.73;;
21593;SDS011;10959;51.328;7.322;2023-02-15T04:22:35;26.73;;;19.03;;
21593;SDS011;10959;51.328;7.322;2023-02-15T04:25:19;25.87;;;19.17;;
21593;SDS011;10959;51.328;7.322;2023-02-15T04:27:46;24.50;;;19.20;;
21593;SDS011;10959;51.328;7.322;2023-02-15T04:30:14;27.13;;;19.13;;
21593;SDS011;10959;51.328;7.322;2023-02-15T04:32:43;22.93;;;18.67;;
21593;SDS011;10959;51.328;7.322;2023-02-15T04:35:10;23.00;;;19.03;;
21593;SDS011;10959;51.328;7.322;2023-02-15T04:37:38;24.87;;;19.03;;
21593;SDS011;10959;51.328;7.322;2023-02-15T04:40:06;24.27;;;18.50;;
21593;SDS011;10959;51.328;7.322;2023-02-15T04:42:33;26.30;;;19.40;;
21593;SDS011;10959;51.328;7.322;2023-02-15T04:45:00;24.00;;;18.40;;
21593;SDS011;10959;51.328;7.322;2023-02-15T04:47:26;24.70;;;17.80;;
21593;SDS011;10959;51.328;7.322;2023-02-15T04:49:52;24.40;;;18.70;;
21593;SDS011;10959;51.328;7.322;2023-02-15T04:52:19;23.17;;;19.27;;
21593;SDS011;10959;51.328;7.322;2023-02-15T04:54:47;25.20;;;18.50;;
21593;SDS011;10959;51.328;7.322;2023-02-15T04:57:13;26.30;;;18.63;;
21593;SDS011;10959;51.328;7.322;2023-02-15T04:59:39;25.30;;;19.50;;
21593;SDS011;10959;51.328;7.322;2023-02-15T05:02:06;25.13;;;19.53;;
21593;SDS011;10959;51.328;7.322;2023-02-15T05:04:32;24.70;;;18.10;;
21593;SDS011;10959;51.328;7.322;2023-02-15T05:06:59;26.43;;;19.87;;
21593;SDS011;10959;51.328;7.322;2023-02-15T05:09:25;24.37;;;19.27;;
21593;SDS011;10959;51.328;7.322;2023-02-15T05:11:53;23.03;;;17.47;;
21593;SDS011;10959;51.328;7.322;2023-02-15T05:14:19;23.83;;;18.33;;
21593;SDS011;10959;51.328;7.322;2023-02-15T05:16:46;25.90;;;18.27;;
21593;SDS011;10959;51.328;7.322;2023-02-15T05:19:12;25.30;;;18.83;;
21593;SDS011;10959;51.328;7.322;2023-02-15T05:21:38;23.70;;;17.87;;
21593;SDS011;10959;51.328;7.322;2023-02-15T05:24:05;23.87;;;16.97;;
21593;SDS011;10959;51.328;7.322;2023-02-15T05:26:54;25.70;;;19.23;;
21593;SDS011;10959;51.328;7.322;2023-02-15T05:29:39;23.93;;;17.73;;
21593;SDS011;10959;51.328;7.322;2023-02-15T05:32:05;23.20;;;17.30;;
21593;SDS011;10959;51.328;7.322;2023-02-15T05:34:32;24.63;;;18.27;;
21593;SDS011;10959;51.328;7.322;2023-02-15T05:36:58;24.33;;;17.67;;
21593;SDS011;10959;51.328;7.322;2023-02-15T05:39:24;21.40;;;17.30;;
21593;SDS011;10959;51.328;7.322;2023-02-15T05:41:51;21.40;;;16.70;;
21593;SDS011;10959;51.328;7.322;2023-02-15T05:44:18;24.23;;;18.43;;
21593;SDS011;10959;51.328;7.322;2023-02-15T05:46:45;24.03;;;17.83;;
21593;SDS011;10959;51.328;7.322;2023-02-15T05:49:11;22.93;;;17.47;;
21593;SDS011;10959;51.328;7.322;2023-02-15T05:51:38;22.70;;;17.17;;
21593;SDS011;10959;51.328;7.322;2023-02-15T05:54:04;22.33;;;16.93;;
21593;SDS011;10959;51.328;7.322;2023-02-15T05:56:30;22.20;;;16.10;;
21593;SDS011;10959;51.328;7.322;2023-02-15T05:58:57;22.83;;;17.70;;
21593;SDS011;10959;51.328;7.322;2023-02-15T06:01:25;23.23;;;18.00;;
21593;SDS011;10959;51.328;7.322;2023-02-15T06:03:51;22.40;;;18.00;;
21593;SDS011;10959;51.328;7.322;2023-02-15T06:06:19;23.37;;;17.03;;
21593;SDS011;10959;51.328;7.322;2023-02-15T06:08:45;21.93;;;17.67;;
21593;SDS011;10959;51.328;7.322;2023-02-15T06:11:11;21.97;;;15.97;;
21593;SDS011;10959;51.328;7.322;2023-02-15T06:13:38;22.33;;;15.80;;
21593;SDS011;10959;51.328;7.322;2023-02-15T06:16:04;22.83;;;17.43;;
21593;SDS011;10959;51.328;7.322;2023-02-15T06:18:32;22.33;;;16.17;;
21593;SDS011;10959;51.328;7.322;2023-02-15T06:20:59;24.20;;;17.27;;
21593;SDS011;10959;51.328;7.322;2023-02-15T06:23:25;22.87;;;16.97;;
21593;SDS011;10959;51.328;7.322;2023-02-15T06:25:52;23.17;;;16.37;;
21593;SDS011;10959;51.328;7.322;2023-02-15T06:28:18;23.23;;;16.40;;
21593;SDS011;10959;51.328;7.322;2023-02-15T06:30:45;25.20;;;17.17;;
21593;SDS011;10959;51.328;7.322;2023-02-15T06:33:12;22.10;;;17.10;;
21593;SDS011;10959;51.328;7.322;2023-02-15T06:35:40;21.67;;;16.07;;
21593;SDS011;10959;51.328;7.322;2023-02-15T06:38:06;21.00;;;16.67;;
21593;SDS011;10959;51.328;7.322;2023-02-15T06:40:33;21.67;;;16.07;;
21593;SDS011;10959;51.328;7.322;2023-02-15T06:42:59;21.37;;;16.00;;
21593;SDS011;10959;51.328;7.322;2023-02-15T06:45:26;22.13;;;15.97;;
21593;SDS011;10959;51.328;7.322;2023-02-15T06:47:52;20.40;;;15.60;;
21593;SDS011;10959;51.328;7.322;2023-02-15T06:50:18;21.93;;;16.83;;
21593;SDS011;10959;51.328;7.322;2023-02-15T06:52:46;19.50;;;15.57;;
21593;SDS011;10959;51.328;7.322;2023-02-15T06:55:13;22.43;;;16.57;;
21593;SDS011;10959;51.328;7.322;2023-02-15T06:57:39;21.70;;;16.23;;
21593;SDS011;10959;51.328;7.322;2023-02-15T07:00:07;23.50;;;17.10;;
21593;SDS011;10959;51.328;7.322;2023-02-15T07:02:34;21.10;;;16.00;;
21593;SDS011;10959;51.328;7.322;2023-02-15T07:05:00;22.13;;;16.80;;
21593;SDS011;10959;51.328;7.322;2023-02-15T07:07:27;20.40;;;15.70;;
21593;SDS011;10959;51.328;7.322;2023-02-15T07:09:55;20.90;;;15.63;;
21593;SDS011;10959;51.328;7.322;2023-02-15T07:12:21;19.50;;;14.73;;
21593;SDS011;10959;51.328;7.322;2023-02-15T07:15:06;20.70;;;15.53;;
21593;SDS011;10959;51.328;7.322;2023-02-15T07:17:34;19.90;;;15.37;;
21593;SDS011;10959;51.328;7.322;2023-02-15T07:20:01;20.37;;;15.97;;
21593;SDS011;10959;51.328;7.322;2023-02-15T07:22:28;21.63;;;15.23;;
21593;SDS011;10959;51.328;7.322;2023-02-15T07:24:56;20.43;;;15.07;;
21593;SDS011;10959;51.328;7.322;2023-02-15T07:27:23;21.53;;;15.63;;
21593;SDS011;10959;51.328;7.322;2023-02-15T07:29:49;20.57;;;15.10;;
21593;SDS011;10959;51.328;7.322;2023-02-15T07:32:15;21.00;;;14.80;;
21593;SDS011;10959;51.328;7.322;2023-02-15T07:34:42;19.33;;;14.40;;
21593;SDS011;10959;51.328;7.322;2023-02-15T07:37:08;20.50;;;16.17;;
21593;SDS011;10959;51.328;7.322;2023-02-15T07:39:35;20.43;;;15.23;;
21593;SDS011;10959;51.328;7.322;2023-02-15T07:42:03;21.77;;;14.77;;
21593;SDS011;10959;51.328;7.322;2023-02-15T07:44:29;23.00;;;15.47;;
21593;SDS011;10959;51.328;7.322;2023-02-15T07:46:55;20.03;;;14.77;;
21593;SDS011;10959;51.328;7.322;2023-02-15T07:49:22;19.53;;;15.07;;
21593;SDS011;10959;51.328;7.322;2023-02-15T07:51:49;19.43;;;14.67;;
21593;SDS011;10959;51.328;7.322;2023-02-15T07:54:15;18.87;;;14.90;;
21593;SDS011;10959;51.328;7.322;2023-02-15T07:56:41;21.03;;;15.03;;
21593;SDS011;10959;51.328;7.322;2023-02-15T07:59:09;20.00;;;15.47;;
21593;SDS011;10959;51.328;7.322;2023-02-15T08:01:37;19.30;;;15.60;;
21593;SDS011;10959;51.328;7.322;2023-02-15T08:04:04;18.30;;;14.20;;
21593;SDS011;10959;51.328;7.322;2023-02-15T08:06:33;17.73;;;14.07;;
21593;SDS011;10959;51.328;7.322;2023-02-15T08:09:02;19.77;;;15.00;;
21593;SDS011;10959;51.328;7.322;2023-02-15T08:11:31;20.17;;;14.97;;
21593;SDS011;10959;51.328;7.322;2023-02-15T08:14:05;18.03;;;13.93;;
21593;SDS011;10959;51.328;7.322;2023-02-15T08:16:35;17.90;;;14.33;;
21593;SDS011;10959;51.328;7.322;2023-02-15T08:19:03;18.73;;;14.03;;
21593;SDS011;10959;51.328;7.322;2023-02-15T08:21:32;18.10;;;13.90;;
21593;SDS011;10959;51.328;7.322;2023-02-15T08:23:59;17.80;;;14.00;;
21593;SDS011;10959;51.328;7.322;2023-02-15T08:26:26;18.23;;;13.97;;
21593;SDS011;10959;51.328;7.322;2023-02-15T08:28:54;18.23;;;13.57;;
21593;SDS011;10959;51.328;7.322;2023-02-15T08:31:21;17.50;;;13.03;;
21593;SDS011;10959;51.328;7.322;2023-02-15T08:33:50;15.20;;;12.70;;
21593;SDS011;10959;51.328;7.322;2023-02-15T08:36:19;17.93;;;13.47;;
21593;SDS011;10959;51.328;7.322;2023-02-15T08:38:47;17.00;;;12.53;;
21593;SDS011;10959;51.328;7.322;2023-02-15T08:41:15;20.80;;;13.40;;
21593;SDS011;10959;51.328;7.322;2023-02-15T08:43:43;17.50;;;13.47;;
21593;SDS011;10959;51.328;7.322;2023-02-15T08:46:12;16.40;;;12.63;;
21593;SDS011;10959;51.328;7.322;2023-02-15T08:48:39;15.73;;;11.53;;
21593;SDS011;10959;51.328;7.322;2023-02-15T08:51:08;14.70;;;12.20;;
21593;SDS011;10959;51.328;7.322;2023-02-15T08:53:37;16.03;;;12.63;;
21593;SDS011;10959;51.328;7.322;2023-02-15T08:56:04;15.23;;;11.73;;
21593;SDS011;10959;51.328;7.322;2023-02-15T08:58:31;14.70;;;12.03;;
21593;SDS011;10959;51.328;7.322;2023-02-15T09:00:58;14.17;;;11.40;;
21593;SDS011;10959;51.328;7.322;2023-02-15T09:03:26;17.33;;;12.50;;
21593;SDS011;10959;51.328;7.322;2023-02-15T09:05:56;13.70;;;10.90;;
21593;SDS011;10959;51.328;7.322;2023-02-15T09:08:25;17.60;;;12.67;;
21593;SDS011;10959;51.328;7.322;2023-02-15T09:10:52;14.47;;;11.40;;
21593;SDS011;10959;51.328;7.322;2023-02-15T09:13:19;17.23;;;12.63;;
21593;SDS011;10959;51.328;7.322;2023-02-15T09:15:46;17.23;;;12.07;;
21593;SDS011;10959;51.328;7.322;2023-02-15T09:18:12;13.20;;;10.27;;
21593;SDS011;10959;51.328;7.322;2023-02-15T09:20:42;15.40;;;11.83;;
21593;SDS011;10959;51.328;7.322;2023-02-15T09:23:09;12.93;;;10.13;;
21593;SDS011;10959;51.328;7.322;2023-02-15T09:25:36;14.47;;;11.13;;
21593;SDS011;10959;51.328;7.322;2023-02-15T09:28:03;15.63;;;12.10;;
21593;SDS011;10959;51.328;7.322;2023-02-15T09:30:29;14.17;;;11.07;;
21593;SDS011;10959;51.328;7.322;2023-02-15T09:32:56;16.33;;;10.83;;
21593;SDS011;10959;51.328;7.322;2023-02-15T09:35:22;15.30;;;11.63;;
21593;SDS011;10959;51.328;7.322;2023-02-15T09:37:49;13.57;;;10.70;;
21593;SDS011;10959;51.328;7.322;2023-02-15T09:40:15;12.80;;;9.57;;
21593;SDS011;10959;51.328;7.322;2023-02-15T09:42:47;15.90;;;11.10;;
21593;SDS011;10959;51.328;7.322;2023-02-15T09:45:31;12.87;;;10.10;;
21593;SDS011;10959;51.328;7.322;2023-02-15T09:48:14;12.53;;;9.93;;
21593;SDS011;10959;51.328;7.322;2023-02-15T09:50:58;12.27;;;9.10;;
21593;SDS011;10959;51.328;7.322;2023-02-15T09:53:38;13.23;;;9.83;;
21593;SDS011;10959;51.328;7.322;2023-02-15T09:56:19;12.70;;;9.30;;
21593;SDS011;10959;51.328;7.322;2023-02-15T09:58:56;11.17;;;9.27;;
21593;SDS011;10959;51.328;7.322;2023-02-15T10:01:31;13.13;;;9.10;;
21593;SDS011;10959;51.328;7.322;2023-02-15T10:04:09;12.00;;;9.53;;
21593;SDS011;10959;51.328;7.322;2023-02-15T10:06:48;12.73;;;9.60;;
21593;SDS011;10959;51.328;7.322;2023-02-15T10:09:32;12.00;;;9.47;;
21593;SDS011;10959;51.328;7.322;2023-02-15T10:12:23;12.27;;;8.47;;
21593;SDS011;10959;51.328;7.322;2023-02-15T10:21:03;12.37;;;9.53;;
21593;SDS011;10959;51.328;7.322;2023-02-15T10:23:38;11.93;;;8.60;;
21593;SDS011;10959;51.328;7.322;2023-02-15T10:26:14;11.53;;;8.93;;
21593;SDS011;10959;51.328;7.322;2023-02-15T10:28:45;11.53;;;8.87;;
21593;SDS011;10959;51.328;7.322;2023-02-15T10:31:20;11.43;;;9.30;;
21593;SDS011;10959;51.328;7.322;2023-02-15T10:33:52;11.63;;;9.50;;
21593;SDS011;10959;51.328;7.322;2023-02-15T10:36:38;9.83;;;8.33;;
21593;SDS011;10959;51.328;7.322;2023-02-15T10:39:19;11.00;;;8.77;;
21593;SDS011;10959;51.328;7.322;2023-02-15T10:41:53;10.90;;;9.40;;
21593;SDS011;10959;51.328;7.322;2023-02-15T10:44:34;10.80;;;8.37;;
21593;SDS011;10959;51.328;7.322;2023-02-15T10:47:20;11.80;;;8.67;;
21593;SDS011;10959;51.328;7.322;2023-02-15T10:50:03;10.53;;;8.67;;
21593;SDS011;10959;51.328;7.322;2023-02-15T10:52:43;11.50;;;9.37;;
21593;SDS011;10959;51.328;7.322;2023-02-15T10:55:24;10.23;;;8.53;;
21593;SDS011;10959;51.328;7.322;2023-02-15T10:58:08;9.27;;;8.17;;
21593;SDS011;10959;51.328;7.322;2023-02-15T11:00:41;11.37;;;8.60;;
21593;SDS011;10959;51.328;7.322;2023-02-15T11:03:16;11.47;;;8.80;;
21593;SDS011;10959;51.328;7.322;2023-02-15T11:05:57;9.70;;;7.87;;
21593;SDS011;10959;51.328;7.322;2023-02-15T11:08:29;10.33;;;8.30;;
21593;SDS011;10959;51.328;7.322;2023-02-15T11:11:01;9.43;;;7.80;;
21593;SDS011;10959;51.328;7.322;2023-02-15T11:13:31;10.83;;;8.33;;
21593;SDS011;10959;51.328;7.322;2023-02-15T11:16:00;9.87;;;8.37;;
21593;SDS011;10959;51.328;7.322;2023-02-15T11:18:34;11.00;;;8.23;;
21593;SDS011;10959;51.328;7.322;2023-02-15T11:21:04;10.23;;;8.30;;
21593;SDS011;10959;51.328;7.322;2023-02-15T11:23:39;10.93;;;8.43;;
21593;SDS011;10959;51.328;7.322;2023-02-15T11:26:10;9.17;;;7.83;;
21593;SDS011;10959;51.328;7.322;2023-02-15T11:28:42;10.17;;;7.13;;
21593;SDS011;10959;51.328;7.322;2023-02-15T11:31:12;9.13;;;7.43;;
21593;SDS011;10959;51.328;7.322;2023-02-15T11:33:45;9.03;;;7.70;;
21593;SDS011;10959;51.328;7.322;2023-02-15T11:36:16;9.93;;;8.33;;
21593;SDS011;10959;51.328;7.322;2023-02-15T11:38:46;8.83;;;7.57;;
21593;SDS011;10959;51.328;7.322;2023-02-15T11:41:18;9.53;;;7.60;;
21593;SDS011;10959;51.328;7.322;2023-02-15T11:43:49;9.07;;;7.37;;
21593;SDS011;10959;51.328;7.322;2023-02-15T11:46:22;7.93;;;6.70;;
21593;SDS011;10959;51.328;7.322;2023-02-15T11:48:49;9.43;;;7.83;;
21593;SDS011;10959;51.328;7.322;2023-02-15T11:51:17;10.47;;;7.93;;
21593;SDS011;10959;51.328;7.322;2023-02-15T11:53:46;9.60;;;7.30;;
21593;SDS011;10959;51.328;7.322;2023-02-15T11:56:13;9.20;;;7.60;;
21593;SDS011;10959;51.328;7.322;2023-02-15T11:58:41;10.13;;;7.57;;
21593;SDS011;10959;51.328;7.322;2023-02-15T12:01:14;9.43;;;7.67;;
21593;SDS011;10959;51.328;7.322;2023-02-15T12:03:45;9.20;;;7.60;;
21593;SDS011;10959;51.328;7.322;2023-02-15T12:06:19;10.07;;;7.97;;
21593;SDS011;10959;51.328;7.322;2023-02-15T12:08:55;9.50;;;7.63;;
21593;SDS011;10959;51.328;7.322;2023-02-15T12:11:29;10.97;;;8.03;;
21593;SDS011;10959;51.328;7.322;2023-02-15T12:14:00;10.20;;;7.97;;
21593;SDS011;10959;51.328;7.322;2023-02-15T12:16:31;10.60;;;7.63;;
21593;SDS011;10959;51.328;7.322;2023-02-15T12:19:01;11.10;;;8.17;;
21593;SDS011;10959;51.328;7.322;2023-02-15T12:21:30;10.57;;;8.53;;
21593;SDS011;10959;51.328;7.322;2023-02-15T12:24:01;10.10;;;8.33;;
21593;SDS011;10959;51.328;7.322;2023-02-15T12:26:35;10.77;;;8.00;;
21593;SDS011;10959;51.328;7.322;2023-02-15T12:29:06;8.67;;;7.73;;
21593;SDS011;10959;51.328;7.322;2023-02-15T12:31:39;10.30;;;8.00;;
21593;SDS011;10959;51.328;7.322;2023-02-15T12:34:09;11.70;;;8.57;;
21593;SDS011;10959;51.328;7.322;2023-02-15T12:36:42;10.07;;;7.80;;
21593;SDS011;10959;51.328;7.322;2023-02-15T12:39:18;8.93;;;7.87;;
21593;SDS011;10959;51.328;7.322;2023-02-15T12:41:57;9.87;;;7.27;;
21593;SDS011;10959;51.328;7.322;2023-02-15T12:44:26;9.00;;;7.80;;
21593;SDS011;10959;51.328;7.322;2023-02-15T12:46:58;8.90;;;7.47;;
21593;SDS011;10959;51.328;7.322;2023-02-15T12:49:26;9.33;;;7.43;;
21593;SDS011;10959;51.328;7.322;2023-02-15T12:51:56;8.43;;;7.23;;
21593;SDS011;10959;51.328;7.322;2023-02-15T12:54:32;10.03;;;8.20;;
21593;SDS011;10959;51.328;7.322;2023-02-15T12:57:14;9.93;;;7.70;;
21593;SDS011;10959;51.328;7.322;2023-02-15T12:59:50;10.33;;;8.17;;
21593;SDS011;10959;51.328;7.322;2023-02-15T13:02:27;9.43;;;7.37;;
21593;SDS011;10959;51.328;7.322;2023-02-15T13:04:56;9.80;;;7.53;;
21593;SDS011;10959;51.328;7.322;2023-02-15T13:07:31;8.33;;;6.83;;
21593;SDS011;10959;51.328;7.322;2023-02-15T13:09:58;9.37;;;7.43;;
21593;SDS011;10959;51.328;7.322;2023-02-15T13:12:25;9.50;;;7.30;;
21593;SDS011;10959;51.328;7.322;2023-02-15T13:14:55;10.57;;;7.73;;
21593;SDS011;10959;51.328;7.322;2023-02-15T13:17:25;8.77;;;7.07;;
21593;SDS011;10959;51.328;7.322;2023-02-15T13:19:54;8.33;;;7.03;;
21593;SDS011;10959;51.328;7.322;2023-02-15T13:22:25;9.50;;;7.00;;
21593;SDS011;10959;51.328;7.322;2023-02-15T13:25:01;10.33;;;7.53;;
21593;SDS011;10959;51.328;7.322;2023-02-15T13:27:37;10.87;;;8.60;;
21593;SDS011;10959;51.328;7.322;2023-02-15T13:30:10;10.90;;;8.17;;
21593;SDS011;10959;51.328;7.322;2023-02-15T13:32:44;11.03;;;7.90;;
21593;SDS011;10959;51.328;7.322;2023-02-15T13:35:14;11.70;;;8.30;;
21593;SDS011;10959;51.328;7.322;2023-02-15T13:37:45;12.67;;;8.37;;
21593;SDS011;10959;51.328;7.322;2023-02-15T13:40:27;13.37;;;8.40;;
21593;SDS011;10959;51.328;7.322;2023-02-15T13:43:00;10.57;;;8.03;;
21593;SDS011;10959;51.328;7.322;2023-02-15T13:45:39;11.77;;;8.37;;
21593;SDS011;10959;51.328;7.322;2023-02-15T13:48:13;11.70;;;8.77;;
21593;SDS011;10959;51.328;7.322;2023-02-15T13:50:51;11.77;;;8.03;;
21593;SDS011;10959;51.328;7.322;2023-02-15T13:53:30;12.33;;;8.73;;
21593;SDS011;10959;51.328;7.322;2023-02-15T13:56:11;12.90;;;9.20;;
21593;SDS011;10959;51.328;7.322;2023-02-15T13:58:55;11.17;;;8.30;;
21593;SDS011;10959;51.328;7.322;2023-02-15T14:01:34;11.83;;;8.37;;
21593;SDS011;10959;51.328;7.322;2023-02-15T14:07:20;11.97;;;7.33;;
21593;SDS011;10959;51.328;7.322;2023-02-15T14:10:02;10.63;;;8.03;;
21593;SDS011;10959;51.328;7.322;2023-02-15T14:12:50;11.07;;;8.07;;
21593;SDS011;10959;51.328;7.322;2023-02-15T14:15:30;10.50;;;8.10;;
21593;SDS011;10959;51.328;7.322;2023-02-15T14:18:07;9.60;;;7.33;;
21593;SDS011;10959;51.328;7.322;2023-02-15T14:20:47;8.50;;;7.43;;
21593;SDS011;10959;51.328;7.322;2023-02-15T14:23:26;11.63;;;8.13;;
21593;SDS011;10959;51.328;7.322;2023-02-15T14:26:04;10.63;;;8.40;;
21593;SDS011;10959;51.328;7.322;2023-02-15T14:28:39;8.47;;;7.43;;
21593;SDS011;10959;51.328;7.322;2023-02-15T14:31:11;9.80;;;7.63;;
21593;SDS011;10959;51.328;7.322;2023-02-15T14:33:40;10.00;;;7.77;;
21593;SDS011;10959;51.328;7.322;2023-02-15T14:36:11;8.90;;;7.33;;
21593;SDS011;10959;51.328;7.322;2023-02-15T14:38:47;12.07;;;8.67;;
21593;SDS011;10959;51.328;7.322;2023-02-15T14:41:21;9.80;;;7.93;;
21593;SDS011;10959;51.328;7.322;2023-02-15T14:43:57;10.67;;;7.57;;
21593;SDS011;10959;51.328;7.322;2023-02-15T14:46:34;9.87;;;7.70;;
21593;SDS011;10959;51.328;7.322;2023-02-15T14:49:05;10.57;;;7.93;;
21593;SDS011;10959;51.328;7.322;2023-02-15T14:54:52;10.80;;;8.10;;
21593;SDS011;10959;51.328;7.322;2023-02-15T14:57:22;11.67;;;8.10;;
21593;SDS011;10959;51.328;7.322;2023-02-15T14:59:53;10.47;;;7.57;;
21593;SDS011;10959;51.328;7.322;2023-02-15T15:02:23;11.70;;;8.53;;
21593;SDS011;10959;51.328;7.322;2023-02-15T15:04:55;9.77;;;7.67;;
21593;SDS011;10959;51.328;7.322;2023-02-15T15:07:26;10.50;;;8.13;;